Time;durP1;ratioP1;P1;durP2;ratioP2;P2;SDS_P1;SDS_P2;PMS_P1;PMS_P2;Temp;Humidity;BMP_temperature;BMP_pressure;BME280_temperature;BME280_humidity;BME280_pressure;Samples;Min_cycle;Max_cycle;Signal;HPM_P1;HPM_P2
2024/04/10 00:00:12;;;;;;;2.20;0.60;;;;;;;12.30;87.23;101175.16;5396374;26;20497;-70
2024/04/10 00:02:56;;;;;;;1.03;0.70;;;;;;;12.22;86.81;101169.09;5393663;26;20472;-70
2024/04/10 00:05:32;;;;;;;1.10;0.70;;;;;;;12.40;86.42;101167.44;5395547;26;20858;-69
2024/04/10 00:08:12;;;;;;;2.97;1.27;;;;;;;12.41;85.26;101176.41;5395438;26;20444;-70
2024/04/10 00:11:10;;;;;;;0.80;0.50;;;;;;;12.36;85.88;101177.03;5388794;26;20474;-68
2024/04/10 00:13:54;;;;;;;1.47;1.00;;;;;;;12.53;85.46;101174.78;5400277;26;20516;-71
2024/04/10 00:16:31;;;;;;;1.57;0.70;;;;;;;12.52;83.32;101165.78;5374272;26;20505;-71
2024/04/10 00:19:15;;;;;;;1.27;0.80;;;;;;;12.51;84.64;101164.09;5386759;26;20448;-70
2024/04/10 00:21:54;;;;;;;0.90;0.60;;;;;;;12.54;83.65;101162.84;5398934;26;20471;-71
2024/04/10 00:24:33;;;;;;;1.10;0.70;;;;;;;12.45;80.84;101154.06;5401394;26;20571;-69
2024/04/10 00:27:18;;;;;;;2.23;0.80;;;;;;;12.50;81.48;101151.56;5388058;26;20478;-70
2024/04/10 00:30:06;;;;;;;1.00;0.70;;;;;;;12.39;82.41;101149.47;5386292;26;20452;-69
2024/04/10 00:32:40;;;;;;;1.77;0.60;;;;;;;12.42;82.82;101154.50;5437965;26;20462;-69
2024/04/10 00:35:28;;;;;;;2.00;0.93;;;;;;;12.47;81.76;101156.59;5402177;26;20459;-70
2024/04/10 00:38:05;;;;;;;2.70;0.77;;;;;;;12.44;81.30;101163.25;5434658;26;20893;-70
2024/04/10 00:41:03;;;;;;;2.03;1.00;;;;;;;12.46;81.05;101166.59;5386874;26;20466;-70
2024/04/10 00:43:46;;;;;;;7.70;0.90;;;;;;;12.39;79.71;101160.31;5428490;26;20508;-73
2024/04/10 00:46:37;;;;;;;1.30;0.83;;;;;;;12.41;79.01;101160.97;5435687;26;20475;-68
2024/04/10 00:49:27;;;;;;;0.90;0.60;;;;;;;12.43;80.65;101167.03;5418612;26;20590;-71
2024/04/10 00:55:01;;;;;;;2.67;0.83;;;;;;;12.46;79.60;101176.63;5401394;26;20444;-71
2024/04/10 00:57:45;;;;;;;6.00;0.90;;;;;;;12.45;80.53;101174.94;5406570;26;20543;-70
2024/04/10 01:00:28;;;;;;;0.80;0.50;;;;;;;12.49;78.70;101187.91;5425988;26;20551;-70
2024/04/10 01:03:22;;;;;;;0.90;0.60;;;;;;;12.48;78.40;101197.09;5424110;26;20523;-71
2024/04/10 01:06:07;;;;;;;5.13;1.23;;;;;;;12.47;77.59;101200.03;5390181;26;20496;-71
2024/04/10 01:08:46;;;;;;;1.00;0.57;;;;;;;12.38;77.99;101218.38;5396749;26;20534;-72
2024/04/10 01:11:37;;;;;;;2.93;0.80;;;;;;;12.40;76.84;101219.00;5398430;26;20484;-69
2024/04/10 01:14:26;;;;;;;1.07;0.80;;;;;;;12.43;77.03;101220.47;5397158;26;20453;-70
2024/04/10 01:17:24;;;;;;;0.90;0.60;;;;;;;12.45;77.00;101224.66;5398044;26;20516;-69
2024/04/10 01:20:08;;;;;;;2.10;0.90;;;;;;;12.42;77.58;101219.63;5450191;26;20565;-70
2024/04/10 01:23:01;;;;;;;1.00;0.83;;;;;;;12.41;76.79;101220.69;5412186;26;20471;-69
2024/04/10 01:25:48;;;;;;;1.20;0.80;;;;;;;12.44;75.88;101227.59;5442892;26;20472;-70
2024/04/10 01:28:41;;;;;;;1.33;0.90;;;;;;;12.41;76.33;101231.53;5420945;26;20522;-69
2024/04/10 01:31:30;;;;;;;0.90;0.60;;;;;;;12.42;75.94;101235.94;5366487;26;20448;-71
2024/04/10 01:34:05;;;;;;;1.00;0.70;;;;;;;12.43;75.76;101237.59;5410756;26;20451;-69
2024/04/10 01:36:52;;;;;;;2.50;1.30;;;;;;;12.42;75.52;101241.34;5442719;26;20519;-70
2024/04/10 01:39:26;;;;;;;1.20;0.70;;;;;;;12.31;76.48;101244.66;5406722;26;20471;-70
2024/04/10 01:42:14;;;;;;;0.80;0.40;;;;;;;12.42;75.40;101244.06;5411180;26;20476;-70
2024/04/10 01:44:49;;;;;;;0.90;0.67;;;;;;;12.35;75.30;101251.34;5397309;26;20476;-72
2024/04/10 01:47:32;;;;;;;1.30;0.97;;;;;;;12.41;76.18;101253.25;5417665;26;21311;-71
2024/04/10 01:50:18;;;;;;;2.40;0.60;;;;;;;12.37;75.65;101249.28;5256236;27;20482;-71
2024/04/10 01:53:06;;;;;;;1.30;0.63;;;;;;;12.42;75.82;101241.34;5305212;27;20556;-71
2024/04/10 01:55:44;;;;;;;1.00;0.70;;;;;;;12.40;76.40;101234.44;5301234;27;20489;-71
2024/04/10 01:58:58;;;;;;;1.77;0.80;;;;;;;12.39;75.89;101243.66;5304076;27;20546;-71
2024/04/10 02:01:35;;;;;;;0.90;0.60;;;;;;;12.42;76.07;101244.06;5242571;27;20521;-70
2024/04/10 02:04:24;;;;;;;1.20;0.83;;;;;;;12.41;74.65;101250.53;5275839;27;20488;-71
2024/04/10 02:07:16;;;;;;;1.10;0.87;;;;;;;12.39;75.17;101255.31;5301769;27;20466;-70
2024/04/10 02:09:59;;;;;;;1.77;1.37;;;;;;;12.42;74.66;101252.22;5242495;27;20890;-70
2024/04/10 02:12:37;;;;;;;3.47;1.00;;;;;;;12.38;75.03;101252.84;5300060;27;20562;-69
2024/04/10 02:15:28;;;;;;;2.17;0.73;;;;;;;12.38;75.77;101261.81;5311499;27;20476;-70
2024/04/10 02:18:05;;;;;;;1.20;0.60;;;;;;;12.37;73.74;101275.56;5244129;27;20530;-67
2024/04/10 02:20:43;;;;;;;1.33;0.60;;;;;;;12.31;74.62;101279.09;5291347;27;20528;-71
2024/04/10 02:23:20;;;;;;;1.00;0.77;;;;;;;12.32;74.15;101276.19;5260798;27;20457;-69
2024/04/10 02:25:59;;;;;;;1.17;0.67;;;;;;;12.28;73.77;101266.78;5253374;27;20455;-71
2024/04/10 02:28:35;;;;;;;1.80;0.97;;;;;;;12.21;72.93;101263.22;5361776;26;20578;-70
2024/04/10 02:31:21;;;;;;;1.17;0.80;;;;;;;12.07;74.20;101275.06;5380931;26;20510;-70
2024/04/10 02:33:57;;;;;;;1.00;0.57;;;;;;;12.16;73.75;101276.53;5346665;26;20479;-69
2024/04/10 02:36:38;;;;;;;0.80;0.60;;;;;;;12.28;73.41;101280.38;5393221;26;21091;-70
2024/04/10 02:39:17;;;;;;;7.77;1.10;;;;;;;12.25;72.91;101271.81;5388003;26;21001;-70
2024/04/10 02:42:07;;;;;;;1.00;0.90;;;;;;;12.22;72.36;101280.31;5398062;26;20483;-71
2024/04/10 02:44:51;;;;;;;1.27;1.07;;;;;;;12.27;72.40;101292.25;5400919;26;20527;-70
2024/04/10 02:47:36;;;;;;;1.00;0.70;;;;;;;12.22;70.97;101293.91;5384438;26;21063;-69
2024/04/10 02:50:15;;;;;;;5.17;0.63;;;;;;;12.19;70.08;101295.16;5385615;26;20476;-70
2024/04/10 02:53:00;;;;;;;2.90;1.00;;;;;;;12.17;69.62;101308.06;5374854;26;20457;-71
2024/04/10 02:55:49;;;;;;;1.20;0.80;;;;;;;12.15;70.21;101307.47;5407584;26;20452;-70
2024/04/10 02:58:45;;;;;;;0.90;0.57;;;;;;;12.08;70.38;101302.00;5378202;26;20502;-69
2024/04/10 03:01:25;;;;;;;2.70;0.70;;;;;;;12.11;71.13;101315.13;5386557;26;20460;-69
2024/04/10 03:07:04;;;;;;;1.53;0.73;;;;;;;12.17;69.81;101321.63;5376287;26;20478;-71
2024/04/10 03:09:43;;;;;;;1.17;0.77;;;;;;;12.15;70.97;101332.69;5388034;26;20472;-69
2024/04/10 03:12:43;;;;;;;1.00;0.63;;;;;;;12.11;69.93;101336.84;5364829;26;20460;-69
2024/04/10 03:15:33;;;;;;;0.90;0.60;;;;;;;12.10;68.37;101356.06;5409828;26;20456;-67
2024/04/10 03:18:15;;;;;;;0.90;0.60;;;;;;;12.08;68.92;101363.53;5379818;26;20495;-69
2024/04/10 03:21:01;;;;;;;1.17;0.80;;;;;;;12.05;69.55;101372.09;5386319;26;20519;-70
2024/04/10 03:23:48;;;;;;;1.00;0.70;;;;;;;12.08;69.96;101377.09;5361133;26;20462;-71
2024/04/10 03:26:32;;;;;;;1.10;0.57;;;;;;;12.13;69.23;101374.63;5330165;26;20442;-70
2024/04/10 03:29:28;;;;;;;1.40;1.00;;;;;;;12.09;70.76;101386.94;5391655;26;20516;-69
2024/04/10 03:32:17;;;;;;;1.17;0.70;;;;;;;12.03;69.47;101377.72;5424577;26;20458;-68
2024/04/10 03:35:04;;;;;;;0.90;0.60;;;;;;;12.02;69.73;101381.44;5386869;26;20487;-71
2024/04/10 03:37:47;;;;;;;2.17;0.80;;;;;;;11.97;70.32;101383.09;5362080;26;20464;-70
2024/04/10 03:40:28;;;;;;;1.73;0.70;;;;;;;12.03;70.22;101383.13;5392795;26;20475;-70
2024/04/10 03:43:14;;;;;;;0.90;0.73;;;;;;;11.98;69.71;101384.78;5386742;26;20543;-70
2024/04/10 03:46:06;;;;;;;0.80;0.50;;;;;;;11.98;70.20;101401.03;5387622;26;20584;-69
2024/04/10 03:48:54;;;;;;;2.60;1.10;;;;;;;12.00;69.62;101415.25;5413737;26;20433;-70
2024/04/10 03:51:53;;;;;;;5.50;0.90;;;;;;;12.00;69.60;101418.81;5399062;26;20456;-71
2024/04/10 03:54:37;;;;;;;0.83;0.57;;;;;;;11.91;69.66;101421.88;5369620;26;20468;-71
2024/04/10 03:57:20;;;;;;;1.50;1.13;;;;;;;11.82;69.03;101417.59;5386077;26;20527;-71
2024/04/10 03:59:56;;;;;;;0.90;0.63;;;;;;;11.76;69.69;101425.50;5378565;26;20531;-69
2024/04/10 04:03:00;;;;;;;1.10;0.80;;;;;;;11.73;69.85;101430.47;5389361;26;20448;-69
2024/04/10 04:05:48;;;;;;;1.20;0.70;;;;;;;11.74;69.54;101433.00;5417930;26;20508;-69
2024/04/10 04:08:32;;;;;;;1.63;0.90;;;;;;;11.77;68.96;101438.03;5385870;26;20551;-69
2024/04/10 04:11:20;;;;;;;0.90;0.60;;;;;;;11.81;69.45;101443.91;5381174;26;20486;-71
2024/04/10 04:14:08;;;;;;;0.83;0.50;;;;;;;11.84;69.35;101448.09;5385789;26;20997;-70
2024/04/10 04:16:45;;;;;;;1.47;1.17;;;;;;;11.80;69.19;101446.81;5377751;26;20532;-70
2024/04/10 04:19:29;;;;;;;3.83;0.83;;;;;;;11.80;69.15;101453.09;5387822;26;20467;-69
2024/04/10 04:22:05;;;;;;;1.60;0.90;;;;;;;11.79;70.04;101462.25;5359388;26;20480;-68
2024/04/10 04:24:45;;;;;;;3.83;0.90;;;;;;;11.75;69.75;101461.81;5389679;26;20459;-69
2024/04/10 04:27:41;;;;;;;1.00;0.70;;;;;;;11.78;70.29;101465.97;5375243;26;20472;-71
2024/04/10 04:30:34;;;;;;;1.70;1.10;;;;;;;11.82;69.37;101466.41;5388705;26;20480;-69
2024/04/10 04:33:16;;;;;;;1.20;0.77;;;;;;;11.70;70.38;101480.50;5380727;26;20520;-70
2024/04/10 04:36:09;;;;;;;1.20;0.87;;;;;;;11.74;69.55;101479.09;5387481;26;20444;-69
2024/04/10 04:38:47;;;;;;;2.93;0.77;;;;;;;11.79;69.96;101481.22;5356725;26;20514;-69
2024/04/10 04:41:28;;;;;;;1.10;0.93;;;;;;;11.78;69.74;101484.97;5391879;26;22563;-70
2024/04/10 04:44:08;;;;;;;1.73;1.43;;;;;;;11.75;70.77;101499.78;5391644;26;20440;-71
2024/04/10 04:46:55;;;;;;;2.80;0.80;;;;;;;11.69;70.81;101502.38;5417274;26;20448;-70
2024/04/10 04:49:35;;;;;;;1.20;0.77;;;;;;;11.77;71.13;101516.66;5382485;26;20620;-70
2024/04/10 04:52:23;;;;;;;1.10;0.77;;;;;;;11.83;70.15;101516.91;5356364;26;20524;-70
2024/04/10 04:55:03;;;;;;;4.90;1.03;;;;;;;11.85;70.60;101528.41;5413370;26;20523;-68
2024/04/10 04:57:43;;;;;;;1.10;0.80;;;;;;;11.88;70.02;101542.44;5354748;26;20522;-68
2024/04/10 05:00:30;;;;;;;1.53;1.10;;;;;;;11.89;70.21;101554.13;5374373;26;20825;-70
2024/04/10 05:03:06;;;;;;;2.13;1.90;;;;;;;11.93;71.07;101555.41;5404165;26;20474;-69
2024/04/10 05:05:49;;;;;;;1.20;0.83;;;;;;;11.93;70.95;101558.94;5391103;26;20472;-70
2024/04/10 05:08:27;;;;;;;1.93;0.90;;;;;;;12.00;71.33;101561.72;5414504;26;20999;-70
2024/04/10 05:11:21;;;;;;;1.10;0.87;;;;;;;12.05;70.55;101572.84;5377065;26;20554;-70
2024/04/10 05:14:08;;;;;;;5.27;1.27;;;;;;;12.06;70.18;101561.78;5381138;26;20440;-70
2024/04/10 05:16:52;;;;;;;1.73;0.90;;;;;;;12.05;70.08;101580.97;5411478;26;20583;-72
2024/04/10 05:19:28;;;;;;;2.50;1.17;;;;;;;12.01;70.23;101585.94;5418448;26;20515;-71
2024/04/10 05:22:09;;;;;;;1.27;0.80;;;;;;;11.98;70.38;101593.63;5387552;26;20488;-69
2024/04/10 05:24:49;;;;;;;5.43;1.67;;;;;;;12.05;70.33;101591.84;5384206;26;21053;-71
2024/04/10 05:27:31;;;;;;;1.10;0.80;;;;;;;11.99;71.74;101598.03;5389066;26;20436;-70
2024/04/10 05:30:16;;;;;;;10.70;1.43;;;;;;;11.96;70.45;101593.81;5426092;26;20837;-70
2024/04/10 05:33:02;;;;;;;0.93;0.63;;;;;;;12.06;71.06;101593.47;5387180;26;20444;-71
2024/04/10 05:35:41;;;;;;;2.03;1.20;;;;;;;12.17;71.20;101601.09;5394681;26;20466;-70
2024/04/10 05:38:26;;;;;;;1.20;0.60;;;;;;;12.26;70.63;101610.78;5377580;26;20467;-69
2024/04/10 05:41:08;;;;;;;3.00;1.23;;;;;;;12.30;70.29;101611.22;5383107;26;20865;-69
2024/04/10 05:43:47;;;;;;;1.00;0.77;;;;;;;12.39;69.65;101607.34;5404512;26;20887;-69
2024/04/10 05:46:24;;;;;;;1.00;0.77;;;;;;;12.34;70.17;101618.81;5385573;26;20447;-70
2024/04/10 05:49:06;;;;;;;1.60;1.17;;;;;;;12.53;69.89;101618.13;5391341;26;20467;-71
2024/04/10 05:51:42;;;;;;;3.40;0.90;;;;;;;12.73;68.10;101623.66;5393000;26;20566;-69
2024/04/10 05:54:25;;;;;;;2.17;1.87;;;;;;;12.78;68.86;101625.81;5410682;26;20500;-70
2024/04/10 05:57:10;;;;;;;5.10;0.93;;;;;;;12.78;67.86;101621.19;5417921;26;20489;-70
2024/04/10 05:59:47;;;;;;;6.70;0.87;;;;;;;12.96;68.22;101629.69;5383105;26;20553;-68
2024/04/10 06:02:31;;;;;;;1.30;1.17;;;;;;;12.82;66.80;101632.53;5392756;26;20570;-69
2024/04/10 06:05:09;;;;;;;1.80;0.80;;;;;;;12.89;67.50;101630.66;5387330;26;20526;-69
2024/04/10 06:07:49;;;;;;;1.40;1.00;;;;;;;12.84;67.24;101636.69;5363304;26;20461;-70
2024/04/10 06:10:24;;;;;;;3.40;0.90;;;;;;;12.84;67.66;101630.44;5387281;26;20592;-69
2024/04/10 06:13:04;;;;;;;3.47;1.27;;;;;;;12.90;68.02;101651.38;5384428;26;20558;-68
2024/04/10 06:15:42;;;;;;;2.50;1.73;;;;;;;12.74;67.70;101649.78;5391796;26;20559;-70
2024/04/10 06:18:20;;;;;;;3.27;1.47;;;;;;;12.59;68.78;101640.91;5381737;26;20501;-70
2024/04/10 06:21:15;;;;;;;1.10;1.00;;;;;;;12.51;68.00;101658.19;5354118;26;20464;-68
2024/04/10 06:23:53;;;;;;;1.50;1.40;;;;;;;12.43;69.05;101661.06;5369901;26;20480;-71
2024/04/10 06:26:34;;;;;;;3.70;1.20;;;;;;;12.39;68.67;101654.31;5401090;26;20448;-70
2024/04/10 06:29:14;;;;;;;1.90;1.30;;;;;;;12.49;67.84;101659.44;5378327;26;20452;-70
2024/04/10 06:31:52;;;;;;;6.97;1.27;;;;;;;12.52;69.16;101659.88;5415452;26;20520;-68
2024/04/10 06:34:32;;;;;;;6.10;1.70;;;;;;;12.78;68.01;101655.69;5387453;26;20523;-70
2024/04/10 06:37:15;;;;;;;1.10;0.80;;;;;;;12.90;67.82;101662.25;5385054;26;20565;-70
2024/04/10 06:39:54;;;;;;;1.40;1.20;;;;;;;12.93;68.21;101667.25;5379595;26;20883;-69
2024/04/10 06:42:42;;;;;;;1.20;1.10;;;;;;;12.76;67.20;101674.88;5383751;26;20872;-71
2024/04/10 06:45:33;;;;;;;3.93;1.40;;;;;;;12.74;67.82;101689.69;5421092;26;20706;-69
2024/04/10 06:48:12;;;;;;;1.30;1.07;;;;;;;12.89;67.70;101682.28;5415556;26;20558;-69
2024/04/10 06:50:59;;;;;;;4.40;2.10;;;;;;;12.90;67.02;101673.94;5410383;26;20902;-69
2024/04/10 06:53:58;;;;;;;1.57;1.17;;;;;;;12.83;66.95;101683.91;5389307;26;20504;-70
2024/04/10 06:56:39;;;;;;;5.63;1.63;;;;;;;12.99;66.43;101688.22;5381397;26;20472;-69
2024/04/10 06:59:25;;;;;;;8.33;1.87;;;;;;;13.06;66.49;101689.94;5413368;26;20464;-70
2024/04/10 07:02:05;;;;;;;6.73;1.17;;;;;;;13.49;66.03;101706.09;5395402;26;20439;-69
2024/04/10 07:04:41;;;;;;;2.10;1.57;;;;;;;13.20;66.14;101690.91;5391559;26;20518;-67
2024/04/10 07:07:27;;;;;;;2.23;1.33;;;;;;;13.28;65.80;101698.88;5411190;26;20468;-70
2024/04/10 07:10:09;;;;;;;2.30;1.17;;;;;;;13.40;64.29;101701.88;5387067;26;20554;-69
2024/04/10 07:13:02;;;;;;;12.23;1.97;;;;;;;13.50;64.95;101705.06;5382927;26;20539;-70
2024/04/10 07:15:45;;;;;;;5.10;1.60;;;;;;;13.16;64.82;101716.81;5404247;26;20437;-70
2024/04/10 07:18:25;;;;;;;5.00;1.40;;;;;;;13.15;64.80;101717.84;5420331;26;20496;-71
2024/04/10 07:21:17;;;;;;;2.50;1.00;;;;;;;13.26;63.73;101735.47;5399152;26;20581;-72
2024/04/10 07:23:56;;;;;;;1.20;0.70;;;;;;;13.22;63.93;101731.44;5415080;26;20499;-71
2024/04/10 07:26:52;;;;;;;4.00;1.90;;;;;;;13.12;63.90;101729.09;5392970;26;20445;-69
2024/04/10 07:29:32;;;;;;;1.20;0.70;;;;;;;13.44;63.97;101733.91;5386781;26;20480;-71
2024/04/10 07:32:19;;;;;;;2.90;1.70;;;;;;;13.31;63.46;101731.09;5394679;26;20578;-70
2024/04/10 07:35:02;;;;;;;5.23;1.33;;;;;;;13.36;63.27;101739.50;5382672;26;20591;-69
2024/04/10 07:37:42;;;;;;;1.80;1.20;;;;;;;13.62;63.26;101748.84;5426926;26;20549;-71
2024/04/10 07:40:23;;;;;;;3.83;0.80;;;;;;;13.37;63.17;101754.75;5389655;26;20482;-70
2024/04/10 07:43:13;;;;;;;1.37;1.00;;;;;;;13.35;63.68;101753.31;5414383;26;20472;-70
2024/04/10 07:45:54;;;;;;;2.73;1.50;;;;;;;13.51;62.67;101763.03;5382501;26;20554;-71
2024/04/10 07:48:38;;;;;;;2.57;1.00;;;;;;;13.54;62.54;101766.19;5421220;26;20478;-69
2024/04/10 07:51:19;;;;;;;2.90;1.10;;;;;;;13.39;62.62;101776.31;5384548;26;20516;-70
2024/04/10 07:54:00;;;;;;;3.87;1.53;;;;;;;13.78;61.88;101781.16;5373182;26;20526;-70
2024/04/10 07:56:44;;;;;;;6.03;1.47;;;;;;;14.00;61.56;101768.25;5384096;26;21009;-68
2024/04/10 07:59:26;;;;;;;3.37;1.53;;;;;;;14.41;61.21;101782.69;5382134;26;20472;-70
2024/04/10 08:02:11;;;;;;;9.40;1.00;;;;;;;14.25;60.14;101783.00;5413892;26;20448;-70
2024/04/10 08:04:53;;;;;;;3.13;1.60;;;;;;;14.31;60.04;101793.09;5387126;26;20781;-70
2024/04/10 08:07:26;;;;;;;1.20;0.90;;;;;;;14.00;59.28;101793.59;5384015;26;20452;-66
2024/04/10 08:09:58;;;;;;;1.30;1.10;;;;;;;14.15;59.38;101799.72;5392471;26;20452;-66
2024/04/10 08:12:29;;;;;;;1.00;0.70;;;;;;;14.66;57.67;101807.47;5385068;26;20440;-68
2024/04/10 08:15:09;;;;;;;1.10;0.80;;;;;;;14.56;56.79;101810.59;5389029;26;20450;-67
2024/04/10 08:17:44;;;;;;;3.17;1.50;;;;;;;14.52;57.15;101800.31;5397082;26;20535;-68
2024/04/10 08:20:18;;;;;;;4.10;1.47;;;;;;;14.68;57.44;101810.78;5405912;26;20910;-67
2024/04/10 08:22:49;;;;;;;2.03;1.33;;;;;;;14.82;56.02;101817.94;5367986;26;20826;-66
2024/04/10 08:25:23;;;;;;;1.77;1.57;;;;;;;14.65;56.75;101824.84;5400730;26;20448;-67
2024/04/10 08:27:54;;;;;;;2.60;1.70;;;;;;;14.92;55.84;101829.28;5372058;26;20557;-66
2024/04/10 08:30:32;;;;;;;1.93;1.07;;;;;;;14.33;56.59;101835.41;5407171;26;20451;-68
2024/04/10 08:33:03;;;;;;;1.97;1.13;;;;;;;14.14;56.70;101838.88;5397765;26;20475;-68
2024/04/10 08:35:37;;;;;;;1.27;1.10;;;;;;;14.24;56.56;101838.50;5386950;26;21054;-66
2024/04/10 08:38:08;;;;;;;2.37;1.40;;;;;;;14.08;57.35;101842.44;5391555;26;20582;-67
2024/04/10 08:40:41;;;;;;;1.10;0.90;;;;;;;14.52;57.03;101835.72;5386553;26;20504;-67
2024/04/10 08:43:15;;;;;;;1.50;1.17;;;;;;;14.48;56.20;101853.50;5386335;26;20997;-68
2024/04/10 08:45:53;;;;;;;6.33;2.20;;;;;;;14.42;57.47;101851.59;5402089;26;20792;-66
2024/04/10 08:48:26;;;;;;;2.13;1.13;;;;;;;14.59;55.86;101863.78;5434286;26;20466;-67
2024/04/10 08:51:04;;;;;;;5.50;1.47;;;;;;;15.07;55.46;101865.38;5387251;26;20496;-67
2024/04/10 08:53:36;;;;;;;1.87;1.20;;;;;;;15.41;54.05;101860.75;5383152;26;20993;-68
2024/04/10 08:56:10;;;;;;;2.20;2.00;;;;;;;15.61;53.45;101872.53;5387565;26;20535;-67
2024/04/10 08:58:43;;;;;;;1.50;1.17;;;;;;;15.42;53.63;101884.25;5385372;26;21170;-67
2024/04/10 09:01:36;;;;;;;1.40;1.10;;;;;;;15.43;53.24;101885.94;5358974;26;20546;-66
2024/04/10 09:04:09;;;;;;;1.40;1.00;;;;;;;15.36;53.42;101890.53;5412525;26;20460;-67
2024/04/10 09:06:43;;;;;;;2.70;1.50;;;;;;;15.70;53.03;101886.78;5381783;26;20576;-66
2024/04/10 09:09:22;;;;;;;1.50;1.20;;;;;;;15.61;52.04;101889.75;5381640;26;20463;-66
2024/04/10 09:11:57;;;;;;;3.60;0.90;;;;;;;15.03;53.06;101895.97;5382844;26;20876;-66
2024/04/10 09:14:30;;;;;;;1.43;1.10;;;;;;;15.16;53.69;101913.19;5380044;26;20439;-67
2024/04/10 09:17:10;;;;;;;2.50;1.20;;;;;;;15.29;53.39;101906.94;5385109;26;20547;-66
2024/04/10 09:19:42;;;;;;;1.33;1.17;;;;;;;15.41;53.44;101910.69;5381403;26;20535;-69
2024/04/10 09:22:17;;;;;;;1.30;1.17;;;;;;;14.92;52.66;101911.03;5379025;26;20534;-69
2024/04/10 09:24:47;;;;;;;1.27;0.90;;;;;;;15.20;53.32;101919.91;5386566;26;20444;-66
2024/04/10 09:27:22;;;;;;;1.20;0.97;;;;;;;15.06;53.29;101915.47;5375091;26;20556;-68
2024/04/10 09:30:00;;;;;;;1.00;0.70;;;;;;;14.90;53.53;101924.06;5380330;26;20482;-68
2024/04/10 09:32:41;;;;;;;2.63;1.60;;;;;;;15.22;53.03;101923.28;5381478;26;20841;-67
2024/04/10 09:35:17;;;;;;;3.50;1.00;;;;;;;15.59;52.66;101923.72;5415443;26;20444;-65
2024/04/10 09:37:55;;;;;;;2.20;1.37;;;;;;;15.41;51.43;101927.06;5381157;26;20583;-66
2024/04/10 09:40:27;;;;;;;1.73;0.73;;;;;;;15.36;51.87;101926.00;5382799;26;20452;-68
2024/04/10 09:43:06;;;;;;;1.50;1.27;;;;;;;15.25;52.80;101927.44;5380555;26;20475;-65
2024/04/10 09:45:43;;;;;;;2.70;1.20;;;;;;;15.44;51.08;101936.72;5380268;26;20523;-67
2024/04/10 09:48:23;;;;;;;1.67;1.47;;;;;;;15.81;52.28;101927.94;5408877;26;20469;-66
2024/04/10 09:51:01;;;;;;;1.30;0.90;;;;;;;15.93;51.27;101933.56;5358944;26;20796;-68
2024/04/10 09:53:37;;;;;;;1.40;1.17;;;;;;;15.27;51.99;101941.72;5377194;26;20456;-66
2024/04/10 09:56:09;;;;;;;1.23;0.80;;;;;;;14.91;53.29;101947.50;5405073;26;20448;-66
2024/04/10 09:58:46;;;;;;;1.00;0.57;;;;;;;15.03;53.82;101945.03;5380368;26;20463;-66
2024/04/10 10:01:24;;;;;;;1.37;0.93;;;;;;;15.08;53.48;101948.84;5389932;26;20472;-68
2024/04/10 10:04:04;;;;;;;1.47;1.00;;;;;;;15.17;52.90;101950.31;5423764;26;20491;-68
2024/04/10 10:06:35;;;;;;;2.70;1.20;;;;;;;15.55;52.24;101947.03;5391988;26;20504;-67
2024/04/10 10:09:09;;;;;;;2.57;0.80;;;;;;;15.97;51.78;101954.78;5392571;26;20442;-67
2024/04/10 10:11:40;;;;;;;2.00;0.90;;;;;;;15.62;50.96;101950.59;5398011;26;20620;-66
2024/04/10 10:14:14;;;;;;;1.17;0.87;;;;;;;15.56;51.08;101957.75;5391103;26;20456;-67
2024/04/10 10:16:46;;;;;;;4.63;1.10;;;;;;;15.09;50.45;101964.16;5414654;26;20467;-69
2024/04/10 10:19:27;;;;;;;2.70;0.70;;;;;;;14.39;52.54;101963.66;5386888;26;20862;-69
2024/04/10 10:22:01;;;;;;;3.70;0.63;;;;;;;14.53;52.97;101965.38;5375364;26;20538;-67
2024/04/10 10:24:42;;;;;;;0.90;0.57;;;;;;;14.82;52.50;101973.28;5411824;26;20833;-66
2024/04/10 10:27:24;;;;;;;0.90;0.60;;;;;;;14.87;52.70;101968.06;5382769;26;20593;-67
2024/04/10 10:30:07;;;;;;;2.03;1.07;;;;;;;15.27;52.29;101976.34;5390548;26;20568;-67
2024/04/10 10:32:40;;;;;;;1.30;1.10;;;;;;;15.34;52.08;101979.94;5418004;26;20496;-68
2024/04/10 10:35:17;;;;;;;2.63;1.60;;;;;;;15.03;52.36;101983.19;5415188;26;20640;-68
2024/04/10 10:37:49;;;;;;;3.03;1.13;;;;;;;14.39;54.37;101988.16;5414517;26;20550;-67
2024/04/10 10:40:23;;;;;;;2.13;0.80;;;;;;;14.09;56.15;101973.91;5385777;26;20536;-68
2024/04/10 10:43:04;;;;;;;10.43;1.47;;;;;;;14.28;55.91;101982.19;5384775;26;21075;-67
2024/04/10 10:45:40;;;;;;;1.20;0.73;;;;;;;14.58;54.82;101979.25;5396970;26;20472;-66
2024/04/10 10:48:18;;;;;;;1.00;0.60;;;;;;;14.87;54.49;101983.56;5425045;26;20475;-65
2024/04/10 10:51:02;;;;;;;1.23;0.80;;;;;;;15.64;51.08;101983.97;5381768;26;20505;-66
2024/04/10 10:53:37;;;;;;;2.13;0.70;;;;;;;15.78;49.42;101993.03;5415094;26;20513;-67
2024/04/10 10:56:08;;;;;;;3.97;1.30;;;;;;;15.67;49.15;101991.75;5405926;26;20464;-66
2024/04/10 10:58:42;;;;;;;9.40;0.70;;;;;;;15.19;49.53;101989.13;5386586;26;20448;-68
2024/04/10 11:01:14;;;;;;;1.00;0.70;;;;;;;15.09;50.90;101996.88;5382163;26;20578;-67
2024/04/10 11:03:49;;;;;;;0.90;0.53;;;;;;;14.95;50.07;102003.31;5429451;26;20460;-68
2024/04/10 11:06:26;;;;;;;0.90;0.57;;;;;;;14.37;51.95;102001.16;5376533;26;20481;-67
2024/04/10 11:09:10;;;;;;;0.90;0.50;;;;;;;14.47;52.60;101993.47;5368870;26;20596;-67
2024/04/10 11:11:44;;;;;;;1.30;0.70;;;;;;;14.29;52.89;102005.66;5415557;26;20852;-66
2024/04/10 11:14:27;;;;;;;1.20;0.70;;;;;;;14.44;53.06;102007.47;5385388;26;20503;-70
2024/04/10 11:17:04;;;;;;;1.00;0.70;;;;;;;14.40;53.25;102000.75;5392284;26;21007;-69
2024/04/10 11:19:44;;;;;;;2.90;1.30;;;;;;;14.74;53.05;102008.88;5417782;26;20474;-69
2024/04/10 11:22:28;;;;;;;1.00;0.80;;;;;;;14.80;52.00;102018.97;5390174;26;20456;-70
2024/04/10 11:25:02;;;;;;;0.90;0.50;;;;;;;15.08;51.95;102022.44;5380830;26;20493;-70
2024/04/10 11:27:39;;;;;;;1.07;0.83;;;;;;;15.40;50.18;102018.13;5381950;26;20547;-69
2024/04/10 11:30:18;;;;;;;1.87;0.70;;;;;;;15.31;50.08;102029.41;5385312;26;20818;-69
2024/04/10 11:32:51;;;;;;;2.80;0.90;;;;;;;15.20;49.49;102037.16;5366699;26;20452;-69
2024/04/10 11:35:27;;;;;;;2.10;0.80;;;;;;;15.35;50.24;102041.59;5379412;26;20904;-70
2024/04/10 11:38:08;;;;;;;1.87;1.33;;;;;;;15.25;49.13;102043.91;5412036;26;20496;-69
2024/04/10 11:40:41;;;;;;;12.13;0.80;;;;;;;15.19;49.66;102040.94;5378477;26;20573;-69
2024/04/10 11:43:20;;;;;;;1.00;0.50;;;;;;;15.01;50.31;102051.56;5422039;26;20442;-69
2024/04/10 11:45:50;;;;;;;0.90;0.60;;;;;;;14.81;50.78;102053.38;5411209;26;20801;-70
2024/04/10 11:48:21;;;;;;;6.20;1.10;;;;;;;15.20;49.53;102061.69;5380938;26;20504;-69
2024/04/10 11:50:55;;;;;;;1.00;0.60;;;;;;;14.86;49.49;102069.97;5377142;26;21028;-70
2024/04/10 11:53:34;;;;;;;1.13;0.50;;;;;;;15.36;48.37;102060.50;5390710;26;21022;-69
2024/04/10 11:56:08;;;;;;;1.30;0.60;;;;;;;15.34;47.29;102062.59;5390620;26;20574;-70
2024/04/10 11:58:42;;;;;;;3.30;1.43;;;;;;;15.49;48.19;102057.78;5387126;26;20507;-68
2024/04/10 12:01:30;;;;;;;1.67;0.53;;;;;;;15.43;47.47;102066.81;5385346;26;20851;-69
2024/04/10 12:04:01;;;;;;;0.90;0.60;;;;;;;15.26;47.63;102070.94;5422049;26;20455;-69
2024/04/10 12:06:39;;;;;;;0.83;0.50;;;;;;;15.43;47.32;102065.97;5396938;26;20490;-70
2024/04/10 12:09:17;;;;;;;1.87;0.60;;;;;;;15.63;47.33;102066.91;5426993;26;20462;-70
2024/04/10 12:11:57;;;;;;;2.13;1.67;;;;;;;15.73;47.78;102077.41;5377085;26;21004;-70
2024/04/10 12:14:29;;;;;;;1.20;0.70;;;;;;;15.01;48.99;102072.50;5386283;26;20535;-70
2024/04/10 12:17:14;;;;;;;1.43;0.90;;;;;;;15.50;48.44;102077.72;5414938;26;20586;-68
2024/04/10 12:19:54;;;;;;;0.80;0.50;;;;;;;15.63;47.19;102086.00;5407282;26;20496;-71
2024/04/10 12:22:30;;;;;;;0.90;0.50;;;;;;;15.68;46.62;102079.91;5400493;26;20573;-71
2024/04/10 12:25:03;;;;;;;2.80;0.70;;;;;;;15.31;47.60;102079.34;5381528;26;20470;-69
2024/04/10 12:27:40;;;;;;;0.90;0.70;;;;;;;15.30;48.37;102098.69;5382789;26;21079;-69
2024/04/10 12:30:18;;;;;;;1.50;0.90;;;;;;;15.13;48.81;102090.84;5410714;26;20449;-71
2024/04/10 12:32:51;;;;;;;2.77;0.87;;;;;;;14.73;49.82;102102.56;5384569;26;20488;-70